sensor_id;sensor_type;location;lat;lon;timestamp;noise_LAeq;noise_LA_min;noise_LA_max;noise_LA01;noise_LA95
47109;Laerm;32856;51.422;6.794;2023-06-26T00:01:00;54.00;44.58;69.81;;
47109;Laerm;32856;51.422;6.794;2023-06-26T00:03:28;48.08;43.68;53.23;;
47109;Laerm;32856;51.422;6.794;2023-06-26T00:05:56;52.83;43.77;69.84;;
47109;Laerm;32856;51.422;6.794;2023-06-26T00:08:26;49.56;45.23;56.56;;
47109;Laerm;32856;51.422;6.794;2023-06-26T00:10:55;48.50;44.27;53.26;;
47109;Laerm;32856;51.422;6.794;2023-06-26T00:13:22;49.23;43.44;55.73;;
47109;Laerm;32856;51.422;6.794;2023-06-26T00:15:50;56.65;46.45;74.92;;
47109;Laerm;32856;51.422;6.794;2023-06-26T00:18:18;49.04;43.63;55.71;;
47109;Laerm;32856;51.422;6.794;2023-06-26T00:20:45;50.51;46.55;54.01;;
47109;Laerm;32856;51.422;6.794;2023-06-26T00:23:12;51.48;45.54;57.04;;
47109;Laerm;32856;51.422;6.794;2023-06-26T00:25:43;50.99;45.23;57.63;;
47109;Laerm;32856;51.422;6.794;2023-06-26T00:28:12;47.96;43.72;52.75;;
47109;Laerm;32856;51.422;6.794;2023-06-26T00:30:39;50.26;46.48;53.95;;
47109;Laerm;32856;51.422;6.794;2023-06-26T00:33:07;48.81;44.90;54.63;;
47109;Laerm;32856;51.422;6.794;2023-06-26T00:35:34;48.66;42.09;54.22;;
47109;Laerm;32856;51.422;6.794;2023-06-26T00:38:02;49.53;44.11;52.87;;
47109;Laerm;32856;51.422;6.794;2023-06-26T00:40:29;49.95;44.73;54.36;;
47109;Laerm;32856;51.422;6.794;2023-06-26T00:42:56;50.14;44.07;54.37;;
47109;Laerm;32856;51.422;6.794;2023-06-26T00:45:25;55.57;47.24;63.00;;
47109;Laerm;32856;51.422;6.794;2023-06-26T00:48:07;49.62;43.86;53.86;;
47109;Laerm;32856;51.422;6.794;2023-06-26T00:50:36;51.15;45.69;60.25;;
47109;Laerm;32856;51.422;6.794;2023-06-26T00:53:04;49.68;44.19;54.36;;
47109;Laerm;32856;51.422;6.794;2023-06-26T00:55:31;54.28;46.18;70.37;;
47109;Laerm;32856;51.422;6.794;2023-06-26T00:57:59;54.50;48.12;60.57;;
47109;Laerm;32856;51.422;6.794;2023-06-26T01:00:27;50.29;45.78;57.39;;
47109;Laerm;32856;51.422;6.794;2023-06-26T01:02:55;52.49;43.14;67.97;;
47109;Laerm;32856;51.422;6.794;2023-06-26T01:05:25;54.18;46.23;71.92;;
47109;Laerm;32856;51.422;6.794;2023-06-26T01:07:53;49.51;44.23;53.74;;
47109;Laerm;32856;51.422;6.794;2023-06-26T01:10:21;49.48;44.83;53.07;;
47109;Laerm;32856;51.422;6.794;2023-06-26T01:12:48;50.59;46.50;54.09;;
47109;Laerm;32856;51.422;6.794;2023-06-26T01:15:16;55.88;44.94;73.94;;
47109;Laerm;32856;51.422;6.794;2023-06-26T01:17:44;53.68;43.72;72.60;;
47109;Laerm;32856;51.422;6.794;2023-06-26T01:20:13;51.82;47.02;55.63;;
47109;Laerm;32856;51.422;6.794;2023-06-26T01:22:43;51.43;46.87;56.60;;
47109;Laerm;32856;51.422;6.794;2023-06-26T01:25:13;58.56;45.75;78.52;;
47109;Laerm;32856;51.422;6.794;2023-06-26T01:27:47;51.70;47.95;56.06;;
47109;Laerm;32856;51.422;6.794;2023-06-26T01:30:15;54.67;46.91;69.90;;
47109;Laerm;32856;51.422;6.794;2023-06-26T01:32:43;50.61;45.27;54.27;;
47109;Laerm;32856;51.422;6.794;2023-06-26T01:35:11;50.55;45.51;57.37;;
47109;Laerm;32856;51.422;6.794;2023-06-26T01:37:38;55.17;46.93;74.05;;
47109;Laerm;32856;51.422;6.794;2023-06-26T01:40:06;50.46;46.64;57.62;;
47109;Laerm;32856;51.422;6.794;2023-06-26T01:42:34;50.08;46.23;53.44;;
47109;Laerm;32856;51.422;6.794;2023-06-26T01:45:03;51.21;47.57;55.99;;
47109;Laerm;32856;51.422;6.794;2023-06-26T01:47:34;53.85;46.80;71.87;;
47109;Laerm;32856;51.422;6.794;2023-06-26T01:50:05;52.24;48.26;66.86;;
47109;Laerm;32856;51.422;6.794;2023-06-26T01:52:37;52.09;46.84;56.45;;
47109;Laerm;32856;51.422;6.794;2023-06-26T01:55:09;50.54;47.16;54.69;;
47109;Laerm;32856;51.422;6.794;2023-06-26T01:57:38;51.73;47.76;55.00;;
47109;Laerm;32856;51.422;6.794;2023-06-26T02:00:08;51.31;47.79;54.31;;
47109;Laerm;32856;51.422;6.794;2023-06-26T02:02:37;52.63;48.07;57.57;;
47109;Laerm;32856;51.422;6.794;2023-06-26T02:05:04;52.20;49.34;55.89;;
47109;Laerm;32856;51.422;6.794;2023-06-26T02:07:32;52.58;48.20;65.78;;
47109;Laerm;32856;51.422;6.794;2023-06-26T02:09:59;55.02;48.02;68.75;;
47109;Laerm;32856;51.422;6.794;2023-06-26T02:12:26;58.05;47.06;74.29;;
47109;Laerm;32856;51.422;6.794;2023-06-26T02:14:54;55.14;47.28;68.17;;
47109;Laerm;32856;51.422;6.794;2023-06-26T02:17:23;55.37;48.61;68.41;;
47109;Laerm;32856;51.422;6.794;2023-06-26T02:19:50;55.89;47.00;68.49;;
47109;Laerm;32856;51.422;6.794;2023-06-26T02:22:17;55.84;48.42;68.32;;
47109;Laerm;32856;51.422;6.794;2023-06-26T02:24:45;59.01;48.78;75.82;;
47109;Laerm;32856;51.422;6.794;2023-06-26T02:27:12;57.78;48.69;72.31;;
47109;Laerm;32856;51.422;6.794;2023-06-26T02:29:40;58.25;48.18;71.39;;
47109;Laerm;32856;51.422;6.794;2023-06-26T02:32:07;56.95;49.45;68.97;;
47109;Laerm;32856;51.422;6.794;2023-06-26T02:34:36;57.15;48.78;72.18;;
47109;Laerm;32856;51.422;6.794;2023-06-26T02:37:03;56.21;49.49;68.65;;
47109;Laerm;32856;51.422;6.794;2023-06-26T02:39:33;56.40;48.67;69.26;;
47109;Laerm;32856;51.422;6.794;2023-06-26T02:42:00;59.34;50.85;75.65;;
47109;Laerm;32856;51.422;6.794;2023-06-26T02:44:28;58.51;49.97;72.51;;
47109;Laerm;32856;51.422;6.794;2023-06-26T02:46:55;60.85;50.43;76.46;;
47109;Laerm;32856;51.422;6.794;2023-06-26T02:49:22;57.17;49.88;69.42;;
47109;Laerm;32856;51.422;6.794;2023-06-26T02:51:51;57.67;48.87;74.78;;
47109;Laerm;32856;51.422;6.794;2023-06-26T02:54:18;55.51;49.15;64.68;;
47109;Laerm;32856;51.422;6.794;2023-06-26T02:56:46;61.35;50.19;73.76;;
47109;Laerm;32856;51.422;6.794;2023-06-26T02:59:14;57.69;48.69;73.66;;
47109;Laerm;32856;51.422;6.794;2023-06-26T03:01:41;55.92;48.55;70.75;;
47109;Laerm;32856;51.422;6.794;2023-06-26T03:04:09;57.82;49.04;74.39;;
47109;Laerm;32856;51.422;6.794;2023-06-26T03:06:37;58.27;49.03;74.15;;
47109;Laerm;32856;51.422;6.794;2023-06-26T03:09:05;63.27;49.81;80.39;;
47109;Laerm;32856;51.422;6.794;2023-06-26T03:11:33;56.91;49.87;72.85;;
47109;Laerm;32856;51.422;6.794;2023-06-26T03:14:00;61.31;50.65;74.47;;
47109;Laerm;32856;51.422;6.794;2023-06-26T03:16:27;63.36;48.39;83.93;;
47109;Laerm;32856;51.422;6.794;2023-06-26T03:18:55;63.46;49.66;77.19;;
47109;Laerm;32856;51.422;6.794;2023-06-26T03:21:22;58.61;48.67;73.72;;
47109;Laerm;32856;51.422;6.794;2023-06-26T03:23:49;58.60;48.51;74.16;;
47109;Laerm;32856;51.422;6.794;2023-06-26T03:26:18;61.44;48.88;75.21;;
47109;Laerm;32856;51.422;6.794;2023-06-26T03:28:45;60.07;47.67;75.48;;
47109;Laerm;32856;51.422;6.794;2023-06-26T03:31:13;57.04;47.80;72.03;;
47109;Laerm;32856;51.422;6.794;2023-06-26T03:33:40;59.78;46.57;73.60;;
47109;Laerm;32856;51.422;6.794;2023-06-26T03:36:08;62.38;48.58;80.87;;
47109;Laerm;32856;51.422;6.794;2023-06-26T03:38:35;62.83;48.64;74.89;;
47109;Laerm;32856;51.422;6.794;2023-06-26T03:41:02;58.90;48.83;72.53;;
47109;Laerm;32856;51.422;6.794;2023-06-26T03:43:31;61.01;48.21;74.91;;
47109;Laerm;32856;51.422;6.794;2023-06-26T03:45:59;56.34;49.03;71.80;;
47109;Laerm;32856;51.422;6.794;2023-06-26T03:48:26;62.68;48.70;75.57;;
47109;Laerm;32856;51.422;6.794;2023-06-26T03:50:53;57.39;48.64;74.85;;
47109;Laerm;32856;51.422;6.794;2023-06-26T03:53:21;60.91;47.06;74.02;;
47109;Laerm;32856;51.422;6.794;2023-06-26T03:55:48;60.44;47.14;76.32;;
47109;Laerm;32856;51.422;6.794;2023-06-26T03:58:15;59.35;47.67;76.95;;
47109;Laerm;32856;51.422;6.794;2023-06-26T04:00:44;59.81;47.12;74.29;;
47109;Laerm;32856;51.422;6.794;2023-06-26T04:03:13;56.44;48.37;69.04;;
47109;Laerm;32856;51.422;6.794;2023-06-26T04:05:40;60.48;48.66;75.42;;
47109;Laerm;32856;51.422;6.794;2023-06-26T04:08:08;62.99;49.45;76.13;;
47109;Laerm;32856;51.422;6.794;2023-06-26T04:10:35;60.66;47.55;78.84;;
47109;Laerm;32856;51.422;6.794;2023-06-26T04:13:03;56.99;48.40;72.18;;
47109;Laerm;32856;51.422;6.794;2023-06-26T04:15:30;59.71;47.76;75.44;;
47109;Laerm;32856;51.422;6.794;2023-06-26T04:17:59;63.31;48.10;79.10;;
47109;Laerm;32856;51.422;6.794;2023-06-26T04:20:26;61.04;48.16;76.93;;
47109;Laerm;32856;51.422;6.794;2023-06-26T04:22:54;58.12;48.03;72.72;;
47109;Laerm;32856;51.422;6.794;2023-06-26T04:25:21;61.77;48.71;76.30;;
47109;Laerm;32856;51.422;6.794;2023-06-26T04:27:48;61.32;47.91;76.70;;
47109;Laerm;32856;51.422;6.794;2023-06-26T04:30:16;62.67;48.16;80.06;;
47109;Laerm;32856;51.422;6.794;2023-06-26T04:32:43;62.38;48.12;74.32;;
47109;Laerm;32856;51.422;6.794;2023-06-26T04:35:12;62.60;48.40;73.70;;
47109;Laerm;32856;51.422;6.794;2023-06-26T04:37:39;63.34;48.81;75.63;;
47109;Laerm;32856;51.422;6.794;2023-06-26T04:40:07;59.95;48.91;73.49;;
47109;Laerm;32856;51.422;6.794;2023-06-26T04:42:35;60.97;48.98;72.13;;
47109;Laerm;32856;51.422;6.794;2023-06-26T04:45:03;62.95;49.34;75.02;;
47109;Laerm;32856;51.422;6.794;2023-06-26T04:47:30;59.79;48.28;73.91;;
47109;Laerm;32856;51.422;6.794;2023-06-26T04:49:58;64.42;48.45;81.19;;
47109;Laerm;32856;51.422;6.794;2023-06-26T04:52:26;61.86;48.73;74.31;;
47109;Laerm;32856;51.422;6.794;2023-06-26T04:54:54;63.27;48.54;77.59;;
47109;Laerm;32856;51.422;6.794;2023-06-26T04:57:21;64.39;48.73;77.61;;
47109;Laerm;32856;51.422;6.794;2023-06-26T04:59:48;65.25;49.16;85.35;;
47109;Laerm;32856;51.422;6.794;2023-06-26T05:02:16;62.90;49.88;78.78;;
47109;Laerm;32856;51.422;6.794;2023-06-26T05:04:43;62.51;48.90;79.67;;
47109;Laerm;32856;51.422;6.794;2023-06-26T05:07:12;60.50;47.59;76.03;;
47109;Laerm;32856;51.422;6.794;2023-06-26T05:09:41;61.41;48.92;75.07;;
47109;Laerm;32856;51.422;6.794;2023-06-26T05:12:08;62.55;49.78;76.78;;
47109;Laerm;32856;51.422;6.794;2023-06-26T05:14:35;62.50;48.90;77.23;;
47109;Laerm;32856;51.422;6.794;2023-06-26T05:17:03;63.69;50.05;79.10;;
47109;Laerm;32856;51.422;6.794;2023-06-26T05:19:30;60.57;48.71;71.93;;
47109;Laerm;32856;51.422;6.794;2023-06-26T05:21:58;64.68;49.73;76.40;;
47109;Laerm;32856;51.422;6.794;2023-06-26T05:24:27;60.56;49.28;73.23;;
47109;Laerm;32856;51.422;6.794;2023-06-26T05:26:57;63.06;48.43;74.67;;
47109;Laerm;32856;51.422;6.794;2023-06-26T05:29:25;64.92;48.95;76.20;;
47109;Laerm;32856;51.422;6.794;2023-06-26T05:31:52;61.53;49.12;73.19;;
47109;Laerm;32856;51.422;6.794;2023-06-26T05:34:20;63.69;48.66;76.88;;
47109;Laerm;32856;51.422;6.794;2023-06-26T05:36:50;59.48;47.16;74.26;;
47109;Laerm;32856;51.422;6.794;2023-06-26T05:39:18;63.30;48.26;75.58;;
47109;Laerm;32856;51.422;6.794;2023-06-26T05:41:45;62.26;46.57;76.11;;
47109;Laerm;32856;51.422;6.794;2023-06-26T05:44:14;62.55;47.70;74.79;;
47109;Laerm;32856;51.422;6.794;2023-06-26T05:46:41;61.79;47.84;73.06;;
47109;Laerm;32856;51.422;6.794;2023-06-26T05:49:09;63.06;47.40;73.74;;
47109;Laerm;32856;51.422;6.794;2023-06-26T05:51:39;66.13;50.17;77.67;;
47109;Laerm;32856;51.422;6.794;2023-06-26T05:54:06;62.09;48.92;73.92;;
47109;Laerm;32856;51.422;6.794;2023-06-26T05:56:34;62.69;47.52;75.95;;
47109;Laerm;32856;51.422;6.794;2023-06-26T05:59:01;63.98;48.67;76.21;;
47109;Laerm;32856;51.422;6.794;2023-06-26T06:01:31;66.89;47.88;83.41;;
47109;Laerm;32856;51.422;6.794;2023-06-26T06:04:01;67.04;51.17;80.14;;
47109;Laerm;32856;51.422;6.794;2023-06-26T06:06:29;62.44;47.68;75.91;;
47109;Laerm;32856;51.422;6.794;2023-06-26T06:08:57;66.50;52.50;77.74;;
47109;Laerm;32856;51.422;6.794;2023-06-26T06:11:24;62.92;48.83;77.62;;
47109;Laerm;32856;51.422;6.794;2023-06-26T06:13:52;64.16;48.26;73.44;;
47109;Laerm;32856;51.422;6.794;2023-06-26T06:16:19;62.34;47.18;76.63;;
47109;Laerm;32856;51.422;6.794;2023-06-26T06:18:48;64.27;49.14;76.79;;
47109;Laerm;32856;51.422;6.794;2023-06-26T06:21:16;62.70;48.80;76.60;;
47109;Laerm;32856;51.422;6.794;2023-06-26T06:23:43;61.29;48.12;74.34;;
47109;Laerm;32856;51.422;6.794;2023-06-26T06:26:11;61.75;46.69;71.82;;
47109;Laerm;32856;51.422;6.794;2023-06-26T06:28:39;62.38;49.07;73.81;;
47109;Laerm;32856;51.422;6.794;2023-06-26T06:31:06;67.29;48.03;83.02;;
47109;Laerm;32856;51.422;6.794;2023-06-26T06:33:34;59.70;46.64;74.70;;
47109;Laerm;32856;51.422;6.794;2023-06-26T06:36:03;63.69;48.81;73.94;;
47109;Laerm;32856;51.422;6.794;2023-06-26T06:38:30;63.63;48.18;75.24;;
47109;Laerm;32856;51.422;6.794;2023-06-26T06:40:58;62.34;47.00;75.69;;
47109;Laerm;32856;51.422;6.794;2023-06-26T06:43:26;61.70;49.44;74.29;;
47109;Laerm;32856;51.422;6.794;2023-06-26T06:45:53;63.47;49.05;74.42;;
47109;Laerm;32856;51.422;6.794;2023-06-26T06:48:20;68.66;48.78;86.71;;
47109;Laerm;32856;51.422;6.794;2023-06-26T06:50:48;61.60;48.00;73.97;;
47109;Laerm;32856;51.422;6.794;2023-06-26T06:53:17;65.80;49.53;78.40;;
47109;Laerm;32856;51.422;6.794;2023-06-26T06:55:46;64.05;47.88;73.74;;
47109;Laerm;32856;51.422;6.794;2023-06-26T06:58:13;61.06;46.57;75.92;;
47109;Laerm;32856;51.422;6.794;2023-06-26T07:00:42;63.93;48.55;76.65;;
47109;Laerm;32856;51.422;6.794;2023-06-26T07:03:09;58.18;47.30;72.75;;
47109;Laerm;32856;51.422;6.794;2023-06-26T07:05:37;65.13;47.46;79.05;;
47109;Laerm;32856;51.422;6.794;2023-06-26T07:08:05;62.36;50.88;75.85;;
47109;Laerm;32856;51.422;6.794;2023-06-26T07:10:33;63.16;50.65;75.31;;
47109;Laerm;32856;51.422;6.794;2023-06-26T07:13:01;63.57;49.22;73.18;;
47109;Laerm;32856;51.422;6.794;2023-06-26T07:15:29;62.83;48.32;77.35;;
47109;Laerm;32856;51.422;6.794;2023-06-26T07:17:56;61.54;49.47;74.09;;
47109;Laerm;32856;51.422;6.794;2023-06-26T07:20:23;63.22;49.06;75.11;;
47109;Laerm;32856;51.422;6.794;2023-06-26T07:22:52;66.43;48.31;79.48;;
47109;Laerm;32856;51.422;6.794;2023-06-26T07:25:19;62.14;48.84;75.72;;
47109;Laerm;32856;51.422;6.794;2023-06-26T07:27:48;61.17;46.73;72.64;;
47109;Laerm;32856;51.422;6.794;2023-06-26T07:30:15;62.66;46.52;74.66;;
47109;Laerm;32856;51.422;6.794;2023-06-26T07:32:44;61.91;46.76;75.85;;
47109;Laerm;32856;51.422;6.794;2023-06-26T07:35:12;60.90;47.04;74.67;;
47109;Laerm;32856;51.422;6.794;2023-06-26T07:37:39;61.79;47.67;77.28;;
47109;Laerm;32856;51.422;6.794;2023-06-26T07:40:07;63.94;48.16;76.15;;
47109;Laerm;32856;51.422;6.794;2023-06-26T07:42:35;63.77;47.54;77.45;;
47109;Laerm;32856;51.422;6.794;2023-06-26T07:45:04;61.47;45.54;73.02;;
47109;Laerm;32856;51.422;6.794;2023-06-26T07:47:36;63.70;49.72;77.65;;
47109;Laerm;32856;51.422;6.794;2023-06-26T07:50:03;61.72;46.64;72.28;;
47109;Laerm;32856;51.422;6.794;2023-06-26T07:52:31;64.04;46.38;76.08;;
47109;Laerm;32856;51.422;6.794;2023-06-26T07:54:58;63.58;48.51;75.88;;
47109;Laerm;32856;51.422;6.794;2023-06-26T07:57:25;61.18;46.43;75.06;;
47109;Laerm;32856;51.422;6.794;2023-06-26T07:59:53;62.47;49.97;75.81;;
47109;Laerm;32856;51.422;6.794;2023-06-26T08:02:21;66.26;48.20;86.97;;
47109;Laerm;32856;51.422;6.794;2023-06-26T08:04:49;62.87;48.95;78.27;;
47109;Laerm;32856;51.422;6.794;2023-06-26T08:07:17;63.05;47.93;73.92;;
47109;Laerm;32856;51.422;6.794;2023-06-26T08:09:45;62.97;46.66;81.76;;
47109;Laerm;32856;51.422;6.794;2023-06-26T08:12:12;60.05;50.34;72.56;;
47109;Laerm;32856;51.422;6.794;2023-06-26T08:14:40;62.09;47.74;73.64;;
47109;Laerm;32856;51.422;6.794;2023-06-26T08:17:08;64.54;49.46;79.82;;
47109;Laerm;32856;51.422;6.794;2023-06-26T08:19:37;68.36;47.61;87.69;;
47109;Laerm;32856;51.422;6.794;2023-06-26T08:22:04;59.19;47.14;72.53;;
47109;Laerm;32856;51.422;6.794;2023-06-26T08:24:32;63.99;51.60;77.81;;
47109;Laerm;32856;51.422;6.794;2023-06-26T08:27:00;62.88;50.07;73.03;;
47109;Laerm;32856;51.422;6.794;2023-06-26T08:29:27;61.17;49.45;71.96;;
47109;Laerm;32856;51.422;6.794;2023-06-26T08:31:55;61.45;47.34;73.51;;
47109;Laerm;32856;51.422;6.794;2023-06-26T08:34:24;61.09;48.26;77.60;;
47109;Laerm;32856;51.422;6.794;2023-06-26T08:36:53;61.16;49.82;71.56;;
47109;Laerm;32856;51.422;6.794;2023-06-26T08:39:20;62.92;46.13;75.21;;
47109;Laerm;32856;51.422;6.794;2023-06-26T08:41:48;61.47;45.83;75.72;;
47109;Laerm;32856;51.422;6.794;2023-06-26T08:44:15;68.53;48.66;86.53;;
47109;Laerm;32856;51.422;6.794;2023-06-26T08:46:43;63.57;50.55;76.94;;
47109;Laerm;32856;51.422;6.794;2023-06-26T08:49:13;61.48;47.46;75.02;;
47109;Laerm;32856;51.422;6.794;2023-06-26T08:51:41;65.46;46.45;83.84;;
47109;Laerm;32856;51.422;6.794;2023-06-26T08:54:13;61.32;45.11;74.29;;
47109;Laerm;32856;51.422;6.794;2023-06-26T08:56:43;60.19;47.00;72.01;;
47109;Laerm;32856;51.422;6.794;2023-06-26T08:59:11;60.76;44.83;74.01;;
47109;Laerm;32856;51.422;6.794;2023-06-26T09:01:40;62.39;48.31;72.58;;
47109;Laerm;32856;51.422;6.794;2023-06-26T09:04:08;62.98;47.52;77.77;;
47109;Laerm;32856;51.422;6.794;2023-06-26T09:06:35;65.33;47.48;81.15;;
47109;Laerm;32856;51.422;6.794;2023-06-26T09:09:03;61.42;46.64;73.47;;
47109;Laerm;32856;51.422;6.794;2023-06-26T09:11:32;63.38;47.10;78.92;;
47109;Laerm;32856;51.422;6.794;2023-06-26T09:13:59;65.40;48.18;77.69;;
47109;Laerm;32856;51.422;6.794;2023-06-26T09:16:27;63.86;47.84;78.46;;
47109;Laerm;32856;51.422;6.794;2023-06-26T09:18:55;61.94;46.69;72.82;;
47109;Laerm;32856;51.422;6.794;2023-06-26T09:21:22;64.74;48.16;76.00;;
47109;Laerm;32856;51.422;6.794;2023-06-26T09:23:50;63.95;47.93;74.47;;
47109;Laerm;32856;51.422;6.794;2023-06-26T09:26:19;62.59;46.69;77.28;;
47109;Laerm;32856;51.422;6.794;2023-06-26T09:28:49;63.52;47.30;75.70;;
47109;Laerm;32856;51.422;6.794;2023-06-26T09:31:18;65.90;45.97;81.51;;
47109;Laerm;32856;51.422;6.794;2023-06-26T09:34:04;61.83;46.55;74.60;;
47109;Laerm;32856;51.422;6.794;2023-06-26T09:36:32;62.31;48.57;74.47;;
47109;Laerm;32856;51.422;6.794;2023-06-26T09:39:05;63.75;47.36;75.52;;
47109;Laerm;32856;51.422;6.794;2023-06-26T09:41:37;65.28;47.52;78.20;;
47109;Laerm;32856;51.422;6.794;2023-06-26T09:44:06;66.24;48.36;86.00;;
47109;Laerm;32856;51.422;6.794;2023-06-26T09:46:34;65.40;48.16;78.17;;
47109;Laerm;32856;51.422;6.794;2023-06-26T09:49:02;64.94;47.44;79.50;;
47109;Laerm;32856;51.422;6.794;2023-06-26T09:51:30;67.28;49.06;83.05;;
47109;Laerm;32856;51.422;6.794;2023-06-26T09:53:58;64.50;49.71;74.08;;
47109;Laerm;32856;51.422;6.794;2023-06-26T09:56:26;64.26;49.88;83.85;;
47109;Laerm;32856;51.422;6.794;2023-06-26T09:58:55;63.48;46.76;74.38;;
47109;Laerm;32856;51.422;6.794;2023-06-26T10:01:24;63.36;48.74;72.94;;
47109;Laerm;32856;51.422;6.794;2023-06-26T10:03:51;64.71;48.25;81.69;;
47109;Laerm;32856;51.422;6.794;2023-06-26T10:06:19;62.22;47.08;75.67;;
47109;Laerm;32856;51.422;6.794;2023-06-26T10:08:49;67.38;47.40;78.85;;
47109;Laerm;32856;51.422;6.794;2023-06-26T10:11:19;63.12;45.80;78.93;;
47109;Laerm;32856;51.422;6.794;2023-06-26T10:13:49;62.20;47.90;72.49;;
47109;Laerm;32856;51.422;6.794;2023-06-26T10:16:21;60.42;46.18;74.03;;
47109;Laerm;32856;51.422;6.794;2023-06-26T10:18:52;63.23;46.64;74.91;;
47109;Laerm;32856;51.422;6.794;2023-06-26T10:21:20;63.33;46.40;78.70;;
47109;Laerm;32856;51.422;6.794;2023-06-26T10:23:49;65.50;52.21;80.02;;
47109;Laerm;32856;51.422;6.794;2023-06-26T10:26:18;65.96;53.25;81.09;;
47109;Laerm;32856;51.422;6.794;2023-06-26T10:28:48;64.07;49.70;78.83;;
47109;Laerm;32856;51.422;6.794;2023-06-26T10:31:18;62.86;50.52;73.40;;
47109;Laerm;32856;51.422;6.794;2023-06-26T10:33:47;62.21;46.50;74.81;;
47109;Laerm;32856;51.422;6.794;2023-06-26T10:36:16;62.90;49.16;74.15;;
47109;Laerm;32856;51.422;6.794;2023-06-26T10:38:48;63.98;50.08;75.05;;
47109;Laerm;32856;51.422;6.794;2023-06-26T10:41:17;63.80;48.85;73.84;;
47109;Laerm;32856;51.422;6.794;2023-06-26T10:43:48;65.01;54.30;74.75;;
47109;Laerm;32856;51.422;6.794;2023-06-26T10:46:16;62.29;49.53;74.66;;
47109;Laerm;32856;51.422;6.794;2023-06-26T10:48:55;65.14;48.03;77.68;;
47109;Laerm;32856;51.422;6.794;2023-06-26T10:51:24;63.73;49.97;78.15;;
47109;Laerm;32856;51.422;6.794;2023-06-26T10:53:53;64.15;47.30;75.91;;
47109;Laerm;32856;51.422;6.794;2023-06-26T10:56:21;61.92;50.85;74.48;;
47109;Laerm;32856;51.422;6.794;2023-06-26T10:58:48;64.25;52.42;76.94;;
47109;Laerm;32856;51.422;6.794;2023-06-26T11:01:19;59.96;47.65;73.04;;
47109;Laerm;32856;51.422;6.794;2023-06-26T11:03:48;64.62;51.86;76.86;;
47109;Laerm;32856;51.422;6.794;2023-06-26T11:06:19;66.94;49.34;78.67;;
47109;Laerm;32856;51.422;6.794;2023-06-26T11:08:49;61.95;48.54;73.03;;
47109;Laerm;32856;51.422;6.794;2023-06-26T11:11:16;63.27;50.26;73.62;;
47109;Laerm;32856;51.422;6.794;2023-06-26T11:13:44;62.42;47.79;73.24;;
47109;Laerm;32856;51.422;6.794;2023-06-26T11:16:12;61.20;47.22;73.63;;
47109;Laerm;32856;51.422;6.794;2023-06-26T11:18:40;59.04;47.44;71.18;;
47109;Laerm;32856;51.422;6.794;2023-06-26T11:21:08;60.19;47.88;76.89;;
47109;Laerm;32856;51.422;6.794;2023-06-26T11:23:36;68.06;49.56;86.97;;
47109;Laerm;32856;51.422;6.794;2023-06-26T11:26:15;67.71;50.33;80.87;;
47109;Laerm;32856;51.422;6.794;2023-06-26T11:28:46;63.53;53.23;74.63;;
47109;Laerm;32856;51.422;6.794;2023-06-26T11:31:23;63.99;53.90;74.29;;
47109;Laerm;32856;51.422;6.794;2023-06-26T11:33:51;64.27;48.13;77.55;;
47109;Laerm;32856;51.422;6.794;2023-06-26T11:36:18;61.18;47.52;74.91;;
47109;Laerm;32856;51.422;6.794;2023-06-26T11:38:45;62.52;49.40;73.47;;
47109;Laerm;32856;51.422;6.794;2023-06-26T11:41:17;62.14;48.60;74.11;;
47109;Laerm;32856;51.422;6.794;2023-06-26T11:43:45;62.61;46.35;74.46;;
47109;Laerm;32856;51.422;6.794;2023-06-26T11:46:12;62.70;51.90;73.59;;
47109;Laerm;32856;51.422;6.794;2023-06-26T11:48:40;64.69;50.21;75.69;;
47109;Laerm;32856;51.422;6.794;2023-06-26T11:51:08;63.70;48.51;73.83;;
47109;Laerm;32856;51.422;6.794;2023-06-26T11:53:38;67.32;53.79;81.17;;
47109;Laerm;32856;51.422;6.794;2023-06-26T11:56:09;65.09;50.47;75.55;;
47109;Laerm;32856;51.422;6.794;2023-06-26T11:58:41;64.17;48.45;75.24;;
47109;Laerm;32856;51.422;6.794;2023-06-26T12:01:19;65.21;48.05;78.13;;
47109;Laerm;32856;51.422;6.794;2023-06-26T12:03:47;64.19;48.60;75.71;;
47109;Laerm;32856;51.422;6.794;2023-06-26T12:06:15;62.10;46.82;76.71;;
47109;Laerm;32856;51.422;6.794;2023-06-26T12:08:43;65.76;51.93;78.75;;
47109;Laerm;32856;51.422;6.794;2023-06-26T12:11:12;63.75;50.56;75.37;;
47109;Laerm;32856;51.422;6.794;2023-06-26T12:13:41;64.37;50.12;74.38;;
47109;Laerm;32856;51.422;6.794;2023-06-26T12:16:08;63.51;51.95;72.86;;
47109;Laerm;32856;51.422;6.794;2023-06-26T12:18:36;62.37;50.01;78.72;;
47109;Laerm;32856;51.422;6.794;2023-06-26T12:21:03;62.96;52.10;75.13;;
47109;Laerm;32856;51.422;6.794;2023-06-26T12:23:33;61.54;47.61;70.58;;
47109;Laerm;32856;51.422;6.794;2023-06-26T12:26:15;63.90;45.20;78.57;;
47109;Laerm;32856;51.422;6.794;2023-06-26T12:28:45;66.92;47.16;85.20;;
47109;Laerm;32856;51.422;6.794;2023-06-26T12:31:13;61.49;48.57;71.61;;
47109;Laerm;32856;51.422;6.794;2023-06-26T12:33:40;62.98;49.29;83.98;;
47109;Laerm;32856;51.422;6.794;2023-06-26T12:36:10;65.28;50.18;80.70;;
47109;Laerm;32856;51.422;6.794;2023-06-26T12:38:37;64.35;50.18;75.44;;
47109;Laerm;32856;51.422;6.794;2023-06-26T12:41:04;64.77;50.59;75.44;;
47109;Laerm;32856;51.422;6.794;2023-06-26T12:43:32;65.98;48.29;75.61;;
47109;Laerm;32856;51.422;6.794;2023-06-26T12:46:01;64.54;50.69;75.22;;
47109;Laerm;32856;51.422;6.794;2023-06-26T12:48:38;65.97;48.49;80.56;;
47109;Laerm;32856;51.422;6.794;2023-06-26T12:51:09;63.69;48.85;77.50;;
47109;Laerm;32856;51.422;6.794;2023-06-26T12:53:37;64.25;49.83;77.70;;
47109;Laerm;32856;51.422;6.794;2023-06-26T12:56:06;63.50;47.44;75.15;;
47109;Laerm;32856;51.422;6.794;2023-06-26T12:58:33;63.02;50.25;74.88;;
47109;Laerm;32856;51.422;6.794;2023-06-26T13:01:02;63.04;47.50;73.41;;
47109;Laerm;32856;51.422;6.794;2023-06-26T13:03:30;62.89;47.04;74.44;;
47109;Laerm;32856;51.422;6.794;2023-06-26T13:05:58;65.46;49.47;79.75;;
47109;Laerm;32856;51.422;6.794;2023-06-26T13:08:26;63.57;48.52;76.88;;
47109;Laerm;32856;51.422;6.794;2023-06-26T13:10:55;63.92;50.62;74.96;;
47109;Laerm;32856;51.422;6.794;2023-06-26T13:13:22;63.05;50.92;74.30;;
47109;Laerm;32856;51.422;6.794;2023-06-26T13:15:49;64.14;52.47;76.42;;
47109;Laerm;32856;51.422;6.794;2023-06-26T13:18:18;63.70;53.64;73.72;;
47109;Laerm;32856;51.422;6.794;2023-06-26T13:20:46;64.43;48.08;75.84;;
47109;Laerm;32856;51.422;6.794;2023-06-26T13:23:13;66.03;50.02;76.01;;
47109;Laerm;32856;51.422;6.794;2023-06-26T13:25:41;65.36;47.76;81.32;;
47109;Laerm;32856;51.422;6.794;2023-06-26T13:28:08;65.10;52.74;75.52;;
47109;Laerm;32856;51.422;6.794;2023-06-26T13:30:36;65.12;48.29;77.46;;
47109;Laerm;32856;51.422;6.794;2023-06-26T13:33:03;66.57;52.48;77.89;;
47109;Laerm;32856;51.422;6.794;2023-06-26T13:35:32;66.52;51.64;77.09;;
47109;Laerm;32856;51.422;6.794;2023-06-26T13:37:59;63.50;48.69;74.40;;
47109;Laerm;32856;51.422;6.794;2023-06-26T13:40:27;67.15;54.91;81.58;;
47109;Laerm;32856;51.422;6.794;2023-06-26T13:42:54;65.35;49.11;77.91;;
47109;Laerm;32856;51.422;6.794;2023-06-26T13:45:21;63.67;49.29;74.62;;
47109;Laerm;32856;51.422;6.794;2023-06-26T13:47:56;66.01;47.38;77.86;;
47109;Laerm;32856;51.422;6.794;2023-06-26T13:50:23;64.30;48.45;77.18;;